Terminal Aerodrome Forecast
Issued by NWS Mt. Holly, NJ

Home | Current Version | Previous Version | Text Only | Print | Product List | Glossary On
Versions: 1 2 3 4 5 6 7 8 9 10 11 12 13 14 15 16 17 18 19
304
FTUS41 KPHI 061138
TAFACY
TAF
KACY 061138Z 0612/0712 VRB02KT P6SM SCT250
     FM061600 22006KT P6SM BKN250
     FM070100 VRB03KT P6SM SCT250=

USA.gov is the U.S. government's official web portal to all federal, state and local government web resources and services.